Time;durP1;ratioP1;P1;durP2;ratioP2;P2;SDS_P1;SDS_P2;PMS_P1;PMS_P2;Temp;Humidity;BMP_temperature;BMP_pressure;BME280_temperature;BME280_humidity;BME280_pressure;Samples;Min_cycle;Max_cycle;Signal;HPM_P1;HPM_P2
2022/08/11 00:02:00;;;;;;;8.10;3.70;;;;;;;16.52;58.94;98642.85;106129;1274;25407;-81
2022/08/11 00:04:35;;;;;;;8.70;4.10;;;;;;;16.37;58.82;98645.52;106049;1273;22547;-79
2022/08/11 00:07:05;;;;;;;9.60;5.20;;;;;;;16.17;59.32;98642.54;106073;1274;24409;-80
2022/08/11 00:09:38;;;;;;;10.60;5.90;;;;;;;16.01;59.42;98641.36;106041;1274;22529;-80
2022/08/11 00:12:15;;;;;;;7.70;5.30;;;;;;;15.93;59.41;98644.30;106059;1272;22574;-81
2022/08/11 00:14:53;;;;;;;15.20;9.10;;;;;;;15.94;59.92;98643.33;106058;1273;25540;-80
2022/08/11 00:17:27;;;;;;;11.40;7.50;;;;;;;15.96;60.25;98642.22;106032;1274;25702;-79
2022/08/11 00:20:02;;;;;;;9.40;6.40;;;;;;;16.00;59.62;98639.59;106086;1274;22616;-81
2022/08/11 00:22:45;;;;;;;8.40;6.50;;;;;;;15.93;60.34;98642.66;106049;1274;25653;-80
2022/08/11 00:25:18;;;;;;;8.60;5.20;;;;;;;15.94;61.63;98643.71;106051;1273;22609;-80
2022/08/11 00:27:47;;;;;;;11.30;6.50;;;;;;;16.22;61.27;98645.91;106094;1274;24276;-80
2022/08/11 00:30:15;;;;;;;7.90;5.70;;;;;;;16.26;60.48;98651.00;106158;1274;22616;-80
2022/08/11 00:32:55;;;;;;;9.20;6.80;;;;;;;16.36;61.19;98647.47;105994;1273;22543;-80
2022/08/11 00:35:29;;;;;;;10.10;7.20;;;;;;;16.33;60.13;98645.64;106151;1274;22863;-80
2022/08/11 00:38:24;;;;;;;8.60;6.30;;;;;;;16.20;60.40;98648.92;106073;1274;22556;-80
2022/08/11 00:40:55;;;;;;;;;;;;;;;16.18;60.98;98649.65;106106;1273;24308;-80
2022/08/11 00:44:01;;;;;;;7.40;6.20;;;;;;;16.06;60.49;98649.05;106029;1273;22726;-80
2022/08/11 00:47:03;;;;;;;8.60;5.80;;;;;;;15.97;61.00;98648.35;106112;1274;24272;-80
2022/08/11 00:49:50;;;;;;;9.70;6.00;;;;;;;16.00;60.68;98647.70;106028;1274;22713;-79
2022/08/11 00:52:27;;;;;;;8.60;6.10;;;;;;;15.94;60.81;98644.34;106054;1274;24473;-80
2022/08/11 00:55:07;;;;;;;10.40;6.50;;;;;;;15.71;60.84;98643.63;106085;1274;22701;-79
2022/08/11 00:57:47;;;;;;;8.10;6.50;;;;;;;15.46;61.34;98643.55;106029;1274;22561;-80
2022/08/11 01:00:25;;;;;;;8.70;6.80;;;;;;;15.49;63.29;98643.60;105993;1271;25394;-80
2022/08/11 01:03:17;;;;;;;8.00;5.40;;;;;;;15.78;62.22;98640.55;106088;1272;22576;-81
2022/08/11 01:05:55;;;;;;;6.10;5.20;;;;;;;16.01;62.49;98637.73;106048;1274;24180;-80
2022/08/11 01:09:01;;;;;;;8.90;6.10;;;;;;;15.96;62.05;98637.98;105846;1274;25401;-79
2022/08/11 01:11:50;;;;;;;12.60;6.90;;;;;;;15.75;62.54;98638.50;105998;1273;22878;-79
2022/08/11 01:14:22;;;;;;;8.80;6.80;;;;;;;15.61;63.04;98642.83;106138;1274;22692;-79
2022/08/11 01:17:27;;;;;;;10.70;7.20;;;;;;;15.73;62.95;98641.95;106094;1274;24242;-79
2022/08/11 01:20:30;;;;;;;8.50;6.40;;;;;;;15.51;63.14;98642.48;106044;1274;25372;-79
2022/08/11 01:23:18;;;;;;;11.70;6.40;;;;;;;15.32;63.26;98640.67;105979;1273;22744;-80
2022/08/11 01:25:55;;;;;;;8.90;6.80;;;;;;;15.31;63.48;98639.30;105878;1273;24276;-79
2022/08/11 01:28:41;;;;;;;8.60;6.40;;;;;;;15.13;63.93;98633.76;105970;1273;22601;-82
2022/08/11 01:31:43;;;;;;;8.20;6.40;;;;;;;15.01;64.41;98629.35;106168;1274;23224;-79
2022/08/11 01:34:55;;;;;;;12.50;6.40;;;;;;;14.85;64.32;98625.61;106166;1274;22622;-79
2022/08/11 01:37:23;;;;;;;9.30;6.40;;;;;;;14.78;64.68;98625.70;105733;1273;25700;-79
2022/08/11 01:40:14;;;;;;;8.80;6.00;;;;;;;14.63;64.90;98623.49;105836;1273;23222;-80
2022/08/11 01:46:25;;;;;;;7.80;6.90;;;;;;;14.22;65.62;98626.17;105922;1273;22796;-79
2022/08/11 01:49:16;;;;;;;7.60;6.60;;;;;;;14.22;66.11;98628.89;105896;1273;25339;-78
2022/08/11 01:52:40;;;;;;;8.40;6.00;;;;;;;14.13;66.34;98627.52;106159;1274;23955;-79
2022/08/11 01:55:31;;;;;;;9.10;5.90;;;;;;;14.27;66.52;98627.10;105432;1281;22807;-79
2022/08/11 01:58:22;;;;;;;6.70;6.00;;;;;;;14.39;66.61;98627.55;105456;1281;24509;-79
2022/08/11 02:01:43;;;;;;;7.80;6.30;;;;;;;14.75;67.90;98627.16;105437;1281;24251;-79
2022/08/11 02:04:11;;;;;;;7.30;5.30;;;;;;;15.08;67.42;98622.95;105367;1281;22587;-79
2022/08/11 02:06:54;;;;;;;8.10;5.80;;;;;;;15.12;65.78;98623.64;105263;1282;24439;-79
2022/08/11 02:09:40;;;;;;;7.10;5.00;;;;;;;15.07;65.56;98623.38;105408;1282;25510;-79
2022/08/11 02:12:45;;;;;;;7.50;5.30;;;;;;;14.93;65.67;98625.06;105240;1280;22903;-79
2022/08/11 02:15:44;;;;;;;6.70;5.50;;;;;;;14.80;66.29;98619.73;105467;1282;24256;-79
2022/08/11 02:25:21;;;;;;;7.70;5.10;;;;;;;14.59;66.50;98619.58;105448;1281;22569;-80
2022/08/11 02:27:59;;;;;;;10.50;4.90;;;;;;;14.42;66.29;98622.44;105455;1281;25319;-81
2022/08/11 02:30:34;;;;;;;9.60;5.20;;;;;;;14.32;67.30;98620.70;105443;1281;22868;-79
2022/08/11 02:33:25;;;;;;;8.60;5.10;;;;;;;14.40;66.64;98617.48;105962;1274;25369;-80
2022/08/11 02:36:07;;;;;;;8.70;5.80;;;;;;;14.36;69.08;98619.10;106050;1273;26606;-81
2022/08/11 02:38:59;;;;;;;6.50;4.90;;;;;;;14.86;69.27;98623.95;105966;1273;22620;-79
2022/08/11 02:44:57;;;;;;;6.90;5.40;;;;;;;15.04;67.24;98621.42;106259;1274;24212;-79
2022/08/11 02:47:41;;;;;;;13.90;6.00;;;;;;;14.99;66.72;98623.51;106019;1274;25599;-82
2022/08/11 02:50:21;;;;;;;7.90;5.00;;;;;;;14.68;67.06;98625.05;106053;1274;25474;-82
2022/08/11 02:53:28;;;;;;;7.60;5.20;;;;;;;14.37;66.78;98627.05;106137;1274;23941;-80
2022/08/11 02:56:12;;;;;;;6.90;5.30;;;;;;;14.10;67.19;98625.20;105427;1282;25479;-80
2022/08/11 03:01:57;;;;;;;6.00;4.80;;;;;;;13.96;68.37;98624.61;105839;1279;24215;-80
2022/08/11 03:04:47;;;;;;;8.20;5.70;;;;;;;14.19;70.28;98627.27;105727;1279;25352;-78
2022/08/11 03:07:24;;;;;;;7.00;4.40;;;;;;;14.37;68.10;98629.33;105638;1279;22663;-79
2022/08/11 03:10:19;;;;;;;7.30;4.60;;;;;;;14.22;67.87;98627.66;105436;1281;24421;-79
2022/08/11 03:19:29;;;;;;;10.60;5.40;;;;;;;13.51;68.72;98626.21;105526;1279;22562;-79
2022/08/11 03:22:23;;;;;;;;;;;;;;;13.43;69.10;98629.14;105556;1279;25513;-79
2022/08/11 03:24:53;;;;;;;7.40;5.00;;;;;;;13.43;69.37;98630.53;105568;1279;24096;-79
2022/08/11 03:27:35;;;;;;;7.70;5.00;;;;;;;13.37;69.56;98633.63;105549;1279;22659;-79
2022/08/11 03:30:17;;;;;;;6.70;4.90;;;;;;;13.31;69.73;98634.34;105560;1279;25351;-78
2022/08/11 03:36:18;;;;;;;8.70;5.10;;;;;;;13.20;70.25;98628.16;106103;1274;22553;-79
2022/08/11 03:38:55;;;;;;;8.50;4.90;;;;;;;13.05;70.87;98625.08;106092;1274;23219;-79
2022/08/11 03:41:43;;;;;;;8.60;4.50;;;;;;;13.00;70.93;98626.51;106125;1274;22694;-79
2022/08/11 03:44:56;;;;;;;6.70;4.50;;;;;;;13.23;71.14;98626.12;106048;1274;25474;-79
2022/08/11 03:47:33;;;;;;;7.90;5.40;;;;;;;13.72;72.43;98624.55;106068;1273;24341;-78
2022/08/11 03:50:23;;;;;;;10.50;5.40;;;;;;;13.99;70.67;98621.54;105904;1273;25331;-78
2022/08/11 03:53:16;;;;;;;8.90;5.10;;;;;;;13.83;70.56;98620.75;105938;1274;25462;-78
2022/08/11 03:56:21;;;;;;;9.60;7.40;;;;;;;13.61;71.20;98612.77;105987;1273;24416;-79
2022/08/11 03:59:05;;;;;;;8.20;7.20;;;;;;;13.27;71.24;98613.33;106047;1274;22538;-78
2022/08/11 04:02:07;;;;;;;7.90;6.70;;;;;;;13.06;71.45;98615.85;106048;1273;22545;-79
2022/08/11 04:04:57;;;;;;;12.20;10.30;;;;;;;12.96;71.94;98609.59;106096;1274;25341;-78
2022/08/11 04:07:56;;;;;;;11.30;8.30;;;;;;;12.85;72.36;98611.67;106084;1274;22537;-79
2022/08/11 04:10:27;;;;;;;11.00;9.90;;;;;;;12.80;72.61;98612.83;105940;1274;22716;-78
2022/08/11 04:13:18;;;;;;;13.50;9.50;;;;;;;12.79;72.49;98612.58;105903;1274;22639;-79
2022/08/11 04:16:24;;;;;;;12.80;8.30;;;;;;;12.79;72.79;98613.23;106016;1274;24394;-79
2022/08/11 04:18:58;;;;;;;9.20;7.40;;;;;;;12.72;73.04;98612.02;105377;1281;22621;-78
2022/08/11 04:21:48;;;;;;;9.80;8.80;;;;;;;12.68;72.92;98613.65;105658;1279;24400;-79
2022/08/11 04:24:35;;;;;;;8.90;6.60;;;;;;;12.60;73.72;98613.52;105234;1281;25246;-78
2022/08/11 04:27:27;;;;;;;11.90;8.00;;;;;;;12.52;74.12;98617.27;105217;1282;22868;-80
2022/08/11 04:30:16;;;;;;;9.40;7.40;;;;;;;12.64;73.96;98615.23;105388;1282;25465;-78
2022/08/11 04:33:29;;;;;;;9.20;6.80;;;;;;;13.10;74.07;98610.31;105551;1279;22563;-79
2022/08/11 04:37:30;;;;;;;13.90;6.30;;;;;;;13.55;73.12;98613.91;105291;1281;22736;-80
2022/08/11 04:39:48;;;;;;;9.30;6.90;;;;;;;13.74;75.51;98615.96;105487;1281;25326;-79
2022/08/11 04:45:39;;;;;;;13.30;5.80;;;;;;;14.66;72.71;98616.25;105670;1279;22529;-78
2022/08/11 05:01:41;;;;;;;10.10;5.70;;;;;;;14.70;72.64;98624.48;105724;1273;22685;-81
2022/08/11 05:07:53;;;;;;;7.60;5.50;;;;;;;14.74;72.86;98629.27;106231;1273;22561;-80
2022/08/11 05:10:45;;;;;;;10.10;6.50;;;;;;;14.63;72.73;98624.59;106231;1273;22542;-80
2022/08/11 05:36:45;;;;;;;7.80;5.40;;;;;;;15.54;72.38;98640.36;106263;1273;22850;-80
2022/08/11 05:57:27;;;;;;;15.20;5.50;;;;;;;17.02;71.73;98653.73;106174;1274;24428;-79
2022/08/11 06:00:15;;;;;;;7.80;5.30;;;;;;;17.32;71.22;98658.66;105982;1274;25536;-79
2022/08/11 06:02:48;;;;;;;8.10;5.00;;;;;;;17.60;70.92;98654.55;106138;1274;22549;-78
2022/08/11 06:05:16;;;;;;;7.70;5.60;;;;;;;17.81;70.63;98656.41;106138;1274;25444;-79
2022/08/11 06:07:48;;;;;;;8.70;4.90;;;;;;;18.02;70.70;98654.77;105985;1274;25446;-79
2022/08/11 06:10:33;;;;;;;6.20;4.70;;;;;;;18.28;70.35;98651.95;105929;1273;24290;-80
2022/08/11 06:13:05;;;;;;;6.10;4.00;;;;;;;18.54;70.14;98656.46;105883;1273;22585;-79
2022/08/11 06:15:43;;;;;;;10.50;3.90;;;;;;;18.66;69.29;98655.72;105913;1273;23007;-78
2022/08/11 06:18:13;;;;;;;9.30;3.40;;;;;;;18.69;68.63;98655.77;105725;1273;24332;-80
2022/08/11 06:20:51;;;;;;;8.60;4.30;;;;;;;18.87;68.62;98658.41;105808;1274;22648;-79
2022/08/11 06:23:24;;;;;;;6.80;4.30;;;;;;;19.11;68.32;98655.20;105860;1274;22845;-80
2022/08/11 06:25:53;;;;;;;5.30;3.50;;;;;;;19.26;67.46;98651.89;105792;1273;22617;-79
2022/08/11 06:28:35;;;;;;;7.10;4.90;;;;;;;19.42;67.43;98651.69;105956;1273;25499;-79
2022/08/11 06:31:23;;;;;;;5.80;3.70;;;;;;;19.54;67.16;98657.60;106009;1274;24237;-79
2022/08/11 06:34:00;;;;;;;9.90;4.50;;;;;;;19.73;67.05;98655.99;106056;1274;25493;-79
2022/08/11 06:36:49;;;;;;;8.80;4.60;;;;;;;19.76;66.23;98653.60;105959;1273;22565;-79
2022/08/11 06:39:31;;;;;;;6.10;4.00;;;;;;;19.96;66.40;98660.20;105826;1274;25238;-79
2022/08/11 06:42:07;;;;;;;9.00;3.80;;;;;;;20.00;65.63;98657.52;106003;1273;24282;-80
2022/08/11 06:44:48;;;;;;;7.50;3.40;;;;;;;20.05;65.52;98657.89;106048;1274;25503;-80
2022/08/11 06:47:17;;;;;;;8.90;4.40;;;;;;;20.14;65.31;98656.05;106115;1274;22684;-80
2022/08/11 06:52:38;;;;;;;5.30;3.80;;;;;;;20.37;64.51;98654.91;106029;1274;22550;-80
2022/08/11 07:01:46;;;;;;;6.00;3.40;;;;;;;20.66;63.27;98648.11;106053;1274;24409;-80
2022/08/11 07:04:55;;;;;;;5.20;3.30;;;;;;;20.81;62.73;98646.50;106108;1273;25522;-80
2022/08/11 07:16:48;;;;;;;6.50;3.00;;;;;;;20.94;60.84;98639.13;105919;1274;23311;-79
2022/08/11 07:30:57;;;;;;;4.20;3.00;;;;;;;21.58;59.87;98633.00;106892;1274;22650;-79
2022/08/11 07:33:38;;;;;;;11.10;2.90;;;;;;;21.81;58.50;98628.53;107010;1273;22692;-79
2022/08/11 07:36:29;;;;;;;5.80;3.00;;;;;;;21.97;58.33;98627.89;106277;1274;22610;-80
2022/08/11 07:38:59;;;;;;;3.80;2.80;;;;;;;22.15;57.63;98633.34;106170;1274;22952;-80
2022/08/11 07:41:31;;;;;;;8.10;2.80;;;;;;;22.40;57.81;98632.81;107015;1274;22564;-79
2022/08/11 07:44:07;;;;;;;8.50;2.90;;;;;;;22.65;57.35;98635.46;106995;1274;22567;-80
2022/08/11 07:52:30;;;;;;;5.80;2.60;;;;;;;22.97;56.14;98639.27;106993;1273;22568;-79
2022/08/11 07:55:10;;;;;;;4.80;2.80;;;;;;;23.03;54.60;98632.48;106982;1273;22549;-79
2022/08/11 08:17:56;;;;;;;5.80;3.00;;;;;;;23.11;50.77;98631.91;107020;1274;22562;-80
2022/08/11 08:20:48;;;;;;;4.50;2.20;;;;;;;22.97;50.57;98633.52;106974;1274;22543;-79
2022/08/11 08:23:31;;;;;;;3.60;2.30;;;;;;;22.78;50.73;98630.07;106442;1274;22588;-79
2022/08/11 08:26:04;;;;;;;4.10;2.30;;;;;;;22.66;51.07;98629.05;107007;1274;22710;-79
2022/08/11 08:28:45;;;;;;;3.60;2.40;;;;;;;22.63;50.89;98626.55;107031;1273;22679;-79
2022/08/11 08:31:14;;;;;;;2.80;2.00;;;;;;;22.53;50.54;98626.28;107072;1274;22522;-79
2022/08/11 08:33:43;;;;;;;4.80;2.50;;;;;;;22.46;50.29;98627.92;106968;1274;25299;-79
2022/08/11 08:36:11;;;;;;;3.20;2.50;;;;;;;22.45;50.51;98621.54;107073;1274;24364;-80
2022/08/11 08:38:48;;;;;;;4.00;2.20;;;;;;;22.60;50.45;98617.46;107071;1274;23288;-79
2022/08/11 08:41:21;;;;;;;8.30;2.80;;;;;;;22.89;50.15;98611.20;106998;1274;25407;-79
2022/08/11 08:43:53;;;;;;;4.50;2.30;;;;;;;23.21;49.45;98611.13;106915;1271;22563;-80
2022/08/11 08:46:35;;;;;;;6.30;2.10;;;;;;;23.50;48.38;98614.30;106959;1271;22696;-80
2022/08/11 08:49:04;;;;;;;3.50;2.20;;;;;;;23.54;47.58;98610.85;106944;1274;25340;-79
2022/08/11 08:51:37;;;;;;;4.40;2.10;;;;;;;23.47;47.85;98615.35;106948;1271;25332;-80
2022/08/11 08:54:37;;;;;;;3.30;2.20;;;;;;;23.39;48.26;98612.56;106474;1274;25889;-80
2022/08/11 08:57:08;;;;;;;3.20;1.90;;;;;;;23.39;48.40;98611.45;106556;1271;22541;-79
2022/08/11 08:59:43;;;;;;;5.60;4.30;;;;;;;23.43;48.51;98613.64;106478;1272;25347;-80
2022/08/11 09:02:24;;;;;;;8.50;7.10;;;;;;;23.60;48.38;98613.45;106554;1271;26598;-79
2022/08/11 09:05:03;;;;;;;8.70;4.00;;;;;;;23.86;47.93;98602.09;106392;1274;22641;-80
2022/08/11 09:07:32;;;;;;;6.90;3.30;;;;;;;24.16;47.70;98605.61;106558;1271;23037;-80
2022/08/11 09:10:09;;;;;;;6.80;2.30;;;;;;;24.46;46.97;98609.02;106453;1271;22574;-81
2022/08/11 09:12:41;;;;;;;8.00;2.60;;;;;;;24.55;46.24;98600.23;106142;1272;24408;-79
2022/08/11 09:15:12;;;;;;;5.30;2.40;;;;;;;24.33;44.91;98606.78;106199;1271;24450;-81
2022/08/11 09:17:57;;;;;;;6.00;2.60;;;;;;;24.02;45.40;98608.07;106592;1271;25332;-78
2022/08/11 09:20:27;;;;;;;6.50;2.40;;;;;;;23.84;45.88;98603.72;106459;1273;22719;-79
2022/08/11 09:28:59;;;;;;;8.40;2.30;;;;;;;23.95;45.48;98602.09;106477;1273;22553;-80
2022/08/11 09:31:32;;;;;;;4.50;2.30;;;;;;;24.05;45.61;98604.83;106445;1273;22685;-80
2022/08/11 09:34:09;;;;;;;4.30;2.50;;;;;;;24.21;45.17;98595.77;106038;1273;25405;-80
2022/08/11 09:42:19;;;;;;;6.40;2.60;;;;;;;24.96;43.83;98591.42;106462;1274;22554;-80
2022/08/11 09:44:51;;;;;;;9.20;2.30;;;;;;;24.91;44.17;98588.70;106440;1273;22534;-81
2022/08/11 09:47:22;;;;;;;5.70;2.30;;;;;;;25.18;44.52;98585.29;106465;1274;23752;-81
2022/08/11 09:49:58;;;;;;;5.10;2.20;;;;;;;25.27;42.98;98587.35;106408;1274;24273;-79
2022/08/11 09:52:37;;;;;;;3.70;2.00;;;;;;;25.02;42.94;98591.66;105298;1274;1468114;-91
2022/08/11 09:55:15;;;;;;;4.70;2.20;;;;;;;24.78;41.99;98591.46;107441;1273;22482;-92
2022/08/11 10:00:36;;;;;;;4.50;1.80;;;;;;;24.05;42.20;98587.59;109855;1261;22624;31
2022/08/11 10:13:03;;;;;;;6.30;3.00;;;;;;;23.67;42.39;98586.11;109001;1268;23105;-91
2022/08/11 10:15:42;;;;;;;8.40;2.50;;;;;;;23.60;42.36;98583.27;109361;1267;22476;-91
2022/08/11 10:18:51;;;;;;;3.90;2.20;;;;;;;23.54;42.45;98580.58;108219;1279;22499;-90
2022/08/11 10:21:36;;;;;;;6.10;2.20;;;;;;;23.63;42.88;98578.84;107850;1279;22643;-90
2022/08/11 10:27:13;;;;;;;7.30;2.30;;;;;;;23.88;42.76;98571.07;108105;1268;22737;-90
2022/08/11 10:35:29;;;;;;;5.40;2.30;;;;;;;24.48;42.25;98558.37;105975;1281;24372;-75
2022/08/11 10:37:59;;;;;;;4.10;2.80;;;;;;;24.51;41.67;98558.88;105621;1281;24432;-76
2022/08/11 10:40:38;;;;;;;3.80;2.20;;;;;;;24.48;41.43;98552.55;105923;1281;22536;-74
2022/08/11 10:43:14;;;;;;;7.20;2.30;;;;;;;24.39;40.93;98550.77;105550;1280;22715;-76
2022/08/11 10:48:58;;;;;;;3.90;2.40;;;;;;;24.33;40.69;98543.81;105708;1281;22632;-76
2022/08/11 10:59:58;;;;;;;4.40;2.00;;;;;;;24.27;41.28;98527.86;105710;1281;22823;-77
2022/08/11 11:02:27;;;;;;;5.40;2.30;;;;;;;24.44;41.27;98522.34;105846;1281;25356;-76
2022/08/11 11:05:08;;;;;;;3.60;1.70;;;;;;;24.79;41.08;98515.65;105679;1281;22755;-77
2022/08/11 11:08:01;;;;;;;6.10;1.80;;;;;;;25.09;41.00;98504.67;105719;1281;22566;-76
2022/08/11 11:10:31;;;;;;;3.00;1.80;;;;;;;25.29;40.81;98502.96;105723;1281;23408;-77
2022/08/11 11:18:36;;;;;;;4.70;1.40;;;;;;;25.73;38.18;98488.69;105490;1281;22576;-77
2022/08/11 11:21:08;;;;;;;3.90;1.80;;;;;;;25.96;37.74;98486.23;105459;1281;26517;-76
2022/08/11 11:23:46;;;;;;;3.70;1.90;;;;;;;26.20;37.97;98478.77;105499;1281;25422;-76
2022/08/11 11:26:18;;;;;;;3.80;1.60;;;;;;;26.44;36.72;98479.80;105466;1281;22870;-76
2022/08/11 11:29:42;;;;;;;5.50;1.90;;;;;;;26.40;37.18;98474.73;105484;1281;25304;-76
2022/08/11 11:32:22;;;;;;;4.40;1.60;;;;;;;26.41;37.64;98473.70;105428;1281;24791;-76
2022/08/11 11:34:49;;;;;;;2.30;1.80;;;;;;;26.58;35.84;98473.23;105486;1282;25224;-76
2022/08/11 11:37:24;;;;;;;2.20;1.30;;;;;;;26.27;33.69;98475.23;105498;1281;22776;-76
2022/08/11 11:39:56;;;;;;;3.50;1.60;;;;;;;25.90;34.16;98476.50;105960;1281;23268;-77
2022/08/11 11:42:25;;;;;;;2.50;1.50;;;;;;;25.68;33.89;98473.44;105678;1281;22547;-78
2022/08/11 11:44:56;;;;;;;7.60;1.50;;;;;;;25.46;33.70;98469.05;105565;1281;24264;-78
2022/08/11 11:47:30;;;;;;;4.10;1.30;;;;;;;25.32;34.51;98469.19;105865;1281;22543;-78
2022/08/11 11:49:59;;;;;;;6.40;1.50;;;;;;;25.34;35.43;98467.46;105470;1281;22542;-78
2022/08/11 11:52:27;;;;;;;3.80;1.60;;;;;;;25.57;35.60;98468.33;105439;1281;26678;-78
2022/08/11 11:54:57;;;;;;;3.20;1.60;;;;;;;25.61;35.71;98464.09;105263;1282;22886;-78
2022/08/11 12:03:18;;;;;;;5.90;1.90;;;;;;;25.63;36.26;98461.17;105923;1281;25321;-78
2022/08/11 12:05:47;;;;;;;3.50;1.60;;;;;;;25.86;36.59;98456.91;105909;1281;22867;-78
2022/08/11 12:08:16;;;;;;;5.70;1.80;;;;;;;26.13;35.80;98460.04;105578;1281;22703;-78
2022/08/11 12:13:50;;;;;;;4.60;1.90;;;;;;;26.20;35.55;98456.13;105580;1281;22556;-77
2022/08/11 12:16:20;;;;;;;4.70;1.70;;;;;;;26.13;34.46;98455.55;105697;1281;25394;-77
2022/08/11 12:19:07;;;;;;;6.00;1.90;;;;;;;25.67;34.97;98454.19;105700;1281;25362;-77
2022/08/11 12:21:36;;;;;;;5.40;1.50;;;;;;;25.46;35.53;98453.83;105671;1281;22601;-78
2022/08/11 12:29:50;;;;;;;5.50;1.80;;;;;;;24.64;36.16;98444.64;105687;1281;24212;-77
2022/08/11 12:32:27;;;;;;;4.30;1.70;;;;;;;24.47;36.55;98444.95;106174;1280;23091;-77
2022/08/11 12:34:56;;;;;;;4.10;1.50;;;;;;;24.40;36.64;98442.41;105801;1280;23249;-77
2022/08/11 12:38:00;;;;;;;4.00;1.80;;;;;;;24.69;37.05;98437.52;105711;1281;23430;-78
2022/08/11 12:46:36;;;;;;;6.40;1.90;;;;;;;25.43;36.73;98421.49;105562;1281;24246;-78
2022/08/11 12:52:05;;;;;;;3.00;1.70;;;;;;;25.34;36.41;98421.68;105662;1281;22641;-77
2022/08/11 12:54:59;;;;;;;3.00;1.70;;;;;;;25.21;36.49;98423.71;106161;1281;25236;-77
2022/08/11 13:06:08;;;;;;;6.10;1.60;;;;;;;25.47;36.55;98416.46;105978;1281;24422;-76
2022/08/11 13:08:39;;;;;;;1.40;1.20;;;;;;;25.32;37.20;98415.75;105591;1281;22695;-77
2022/08/11 13:14:15;;;;;;;4.40;1.60;;;;;;;25.32;37.27;98414.80;105472;1281;24526;-77
2022/08/11 13:19:33;;;;;;;4.10;1.50;;;;;;;26.36;37.35;98410.80;105465;1281;25517;-76
2022/08/11 13:22:06;;;;;;;4.70;1.60;;;;;;;26.77;36.42;98416.16;105531;1281;24344;-78
2022/08/11 13:24:35;;;;;;;1.90;1.50;;;;;;;26.64;35.49;98433.52;105479;1281;25096;-77
2022/08/11 13:27:05;;;;;;;27.60;2.30;;;;;;;26.30;35.25;98438.86;105970;1281;22559;-91
2022/08/11 13:29:34;;;;;;;20.60;2.90;;;;;;;25.36;37.05;98470.67;105858;1282;26358;-91
2022/08/11 13:32:03;;;;;;;16.80;2.80;;;;;;;24.20;38.26;98511.02;106136;1281;22727;-87
2022/08/11 13:34:34;;;;;;;13.50;2.80;;;;;;;23.44;38.82;98527.54;106206;1281;24060;-91
2022/08/11 13:37:04;;;;;;;10.30;2.20;;;;;;;22.86;40.00;98531.48;106188;1281;24330;-92
2022/08/11 13:39:33;;;;;;;7.40;2.30;;;;;;;22.19;40.84;98534.85;106217;1281;22622;-89
2022/08/11 13:42:03;;;;;;;11.70;2.70;;;;;;;21.51;42.14;98539.02;106163;1281;22558;-84
2022/08/11 13:44:37;;;;;;;10.20;3.20;;;;;;;20.89;43.91;98546.06;106012;1281;22890;-88
2022/08/11 13:47:07;;;;;;;10.30;2.80;;;;;;;20.15;45.15;98556.19;106151;1281;24290;-90
2022/08/11 13:49:38;;;;;;;7.00;2.70;;;;;;;19.48;46.49;98563.55;105923;1282;23228;-91
2022/08/11 13:52:15;;;;;;;9.80;3.00;;;;;;;18.84;47.56;98561.73;106260;1281;22550;-91
2022/08/11 13:54:47;;;;;;;8.10;2.70;;;;;;;18.32;48.06;98559.27;106231;1281;23943;-88
2022/08/11 13:57:17;;;;;;;8.30;2.70;;;;;;;17.92;51.11;98557.16;105816;1281;25289;-88
2022/08/11 14:00:09;;;;;;;6.30;2.60;;;;;;;17.57;50.33;98558.58;106052;1281;24218;-90
2022/08/11 14:02:51;;;;;;;4.50;2.50;;;;;;;17.40;51.47;98555.23;105858;1284;24299;-90
2022/08/11 14:05:28;;;;;;;4.30;2.60;;;;;;;17.18;52.10;98551.16;106306;1281;22573;-89
2022/08/11 14:08:06;;;;;;;5.80;2.20;;;;;;;17.08;51.93;98552.85;107177;1281;22573;-88
2022/08/11 14:14:10;;;;;;;4.70;2.40;;;;;;;16.96;52.57;98548.53;106022;1281;23281;-87
2022/08/11 14:16:41;;;;;;;9.80;2.90;;;;;;;16.87;53.56;98541.39;105862;1280;23540;-89
2022/08/11 14:19:13;;;;;;;4.50;2.90;;;;;;;16.80;54.84;98539.55;105895;1281;23450;-88
2022/08/11 14:24:40;;;;;;;10.00;2.60;;;;;;;16.57;55.30;98529.83;105885;1280;25352;-83
2022/08/11 14:27:10;;;;;;;3.80;2.20;;;;;;;16.53;55.82;98526.31;105889;1281;25314;-85
2022/08/11 14:29:58;;;;;;;11.70;2.60;;;;;;;16.50;55.63;98517.45;105889;1281;22737;-86
2022/08/11 14:32:27;;;;;;;7.00;3.10;;;;;;;16.48;59.62;98516.36;105852;1281;22567;-84
2022/08/11 14:34:55;;;;;;;5.00;2.60;;;;;;;16.38;62.53;98514.52;105914;1281;23249;-88
2022/08/11 14:37:26;;;;;;;6.50;2.60;;;;;;;16.24;62.68;98509.95;105863;1281;23443;-84
2022/08/11 14:39:59;;;;;;;6.20;2.40;;;;;;;16.18;62.00;98503.30;106031;1281;25552;-88
2022/08/11 14:48:25;;;;;;;5.90;2.50;;;;;;;16.47;61.55;98506.86;106004;1281;22657;-88
2022/08/11 14:50:55;;;;;;;12.80;2.90;;;;;;;16.52;64.41;98503.11;105970;1281;24413;-88
2022/08/11 14:53:24;;;;;;;7.10;3.10;;;;;;;16.50;64.50;98501.06;105791;1283;23408;-88
2022/08/11 14:58:42;;;;;;;6.30;3.00;;;;;;;16.64;64.29;98486.02;105999;1281;24345;-86
2022/08/11 15:03:58;;;;;;;10.20;3.30;;;;;;;16.94;64.05;98479.17;105970;1281;22548;-87
2022/08/11 15:06:47;;;;;;;5.80;2.60;;;;;;;17.12;64.66;98480.02;105977;1281;22638;-80
2022/08/11 15:09:16;;;;;;;6.50;2.80;;;;;;;17.42;64.82;98483.11;105969;1281;25371;-81
2022/08/11 15:17:24;;;;;;;6.20;3.10;;;;;;;18.04;64.49;98471.83;105813;1281;25507;-84
2022/08/11 15:25:59;;;;;;;9.00;3.20;;;;;;;19.25;67.18;98465.15;105927;1281;22667;-83
2022/08/11 15:37:26;;;;;;;6.80;2.40;;;;;;;21.63;65.75;98451.00;105843;1281;22623;-82
2022/08/11 15:46:06;;;;;;;5.50;2.40;;;;;;;23.69;62.87;98448.29;105557;1281;22767;-80
2022/08/11 15:48:44;;;;;;;3.50;2.10;;;;;;;24.18;61.33;98448.61;105580;1281;22715;-82
2022/08/11 15:51:34;;;;;;;6.40;2.40;;;;;;;24.44;61.08;98451.35;105533;1281;25371;-83
2022/08/11 15:54:08;;;;;;;5.10;2.20;;;;;;;24.52;60.63;98450.66;105594;1281;24227;-81
2022/08/11 15:56:41;;;;;;;5.60;3.20;;;;;;;24.63;60.72;98454.23;105358;1281;24362;-83
2022/08/11 16:05:03;;;;;;;7.20;2.10;;;;;;;23.91;59.52;98457.86;105486;1281;25247;-81
2022/08/11 16:07:34;;;;;;;2.80;2.00;;;;;;;23.60;59.55;98455.71;105574;1281;22594;-82
2022/08/11 16:10:20;;;;;;;8.80;4.70;;;;;;;23.21;59.61;98454.90;105456;1281;22537;-82
2022/08/11 16:18:40;;;;;;;4.90;2.50;;;;;;;22.71;59.80;98457.09;105581;1281;25297;-83
2022/08/11 16:21:24;;;;;;;4.90;2.70;;;;;;;22.54;60.11;98458.60;105618;1281;24326;-84
2022/08/11 16:24:08;;;;;;;4.80;2.70;;;;;;;22.33;60.57;98458.05;105526;1281;22636;-82
2022/08/11 16:26:58;;;;;;;9.50;3.30;;;;;;;22.07;60.92;98456.80;105877;1281;22594;-80
2022/08/11 16:29:46;;;;;;;3.50;2.70;;;;;;;21.96;61.34;98459.00;105553;1282;22553;-90
2022/08/11 16:32:20;;;;;;;5.00;3.10;;;;;;;21.97;61.69;98458.95;105745;1281;22703;-84
2022/08/11 16:40:57;;;;;;;4.10;2.80;;;;;;;21.73;63.10;98440.96;105581;1282;25593;-87
2022/08/11 16:49:12;;;;;;;5.70;2.80;;;;;;;21.06;64.33;98440.29;105464;1281;22697;-87
2022/08/11 16:51:40;;;;;;;;;;;;;;;20.94;64.61;98442.48;105725;1281;23233;-89
2022/08/11 16:54:08;;;;;;;6.30;2.60;;;;;;;20.85;64.35;98441.27;105701;1281;22999;-87
2022/08/11 16:56:44;;;;;;;5.00;2.80;;;;;;;20.83;64.34;98439.25;105665;1281;24407;-87
2022/08/11 16:59:39;;;;;;;3.70;2.90;;;;;;;20.93;64.13;98437.94;105652;1281;25412;-87
2022/08/11 17:14:23;;;;;;;4.40;2.50;;;;;;;21.62;62.75;98432.36;105665;1281;22550;-87
2022/08/11 17:17:27;;;;;;;3.60;2.70;;;;;;;21.51;62.34;98429.77;105712;1281;22621;-90
2022/08/11 17:20:01;;;;;;;2.80;2.30;;;;;;;21.28;62.40;98423.81;105761;1281;24251;-91
2022/08/11 17:25:42;;;;;;;7.00;2.90;;;;;;;20.75;62.78;98425.27;105743;1281;22694;-87
2022/08/11 17:28:33;;;;;;;4.60;3.10;;;;;;;20.78;63.07;98427.55;105636;1281;24408;-87
2022/08/11 17:36:59;;;;;;;7.60;2.60;;;;;;;20.54;63.14;98429.04;105651;1281;23408;-87
2022/08/11 17:39:30;;;;;;;3.70;2.80;;;;;;;20.37;63.58;98430.69;106249;1282;22711;-88
2022/08/11 17:50:22;;;;;;;3.40;2.70;;;;;;;19.10;65.44;98430.10;105470;1281;22543;-88
2022/08/11 18:01:16;;;;;;;5.00;3.00;;;;;;;18.83;66.19;98434.20;105612;1281;22694;-87